Time;durP1;ratioP1;P1;durP2;ratioP2;P2;SDS_P1;SDS_P2;PMS_P1;PMS_P2;Temp;Humidity;BMP_temperature;BMP_pressure;BME280_temperature;BME280_humidity;BME280_pressure;Samples;Min_cycle;Max_cycle;Signal;HPM_P1;HPM_P2
2023/04/13 00:01:08;;;;;;;;;;;8.90;99.90;;;;;;5024404;28;19929;-90
2023/04/13 00:03:35;;;;;;;;;;;8.90;99.90;;;;;;5011600;28;19937;-91
2023/04/13 00:06:02;;;;;;;;;;;8.90;99.90;;;;;;5004813;28;19959;-90
2023/04/13 00:08:30;;;;;;;;;;;8.90;99.90;;;;;;5001459;28;20598;-90
2023/04/13 00:10:58;;;;;;;;;;;8.90;99.90;;;;;;5005075;28;20001;-90
2023/04/13 00:13:25;;;;;;;;;;;8.80;99.90;;;;;;4998717;28;19996;-89
2023/04/13 00:15:54;;;;;;;;;;;8.80;99.90;;;;;;5000249;28;19925;-90
2023/04/13 00:18:23;;;;;;;;;;;8.80;99.90;;;;;;5018394;28;20445;-90
2023/04/13 00:20:50;;;;;;;;;;;8.80;99.90;;;;;;5002113;28;19971;-91
2023/04/13 00:23:17;;;;;;;;;;;8.80;99.90;;;;;;4998638;28;20403;-90
2023/04/13 00:25:44;;;;;;;;;;;8.80;99.90;;;;;;5009970;28;19932;-88
2023/04/13 00:28:11;;;;;;;;;;;8.80;99.90;;;;;;5007408;28;20358;-89
2023/04/13 00:30:37;;;;;;;;;;;8.80;99.90;;;;;;4999652;28;20016;-89
2023/04/13 00:33:06;;;;;;;;;;;8.80;99.90;;;;;;5004499;28;19980;-90
2023/04/13 00:35:33;;;;;;;;;;;8.70;99.90;;;;;;5001357;28;19965;-89
2023/04/13 00:38:01;;;;;;;;;;;8.70;99.90;;;;;;5015483;28;19934;-90
2023/04/13 00:40:28;;;;;;;;;;;8.70;99.90;;;;;;5000598;28;20427;-89
2023/04/13 00:42:55;;;;;;;;;;;8.70;99.90;;;;;;4999249;28;20404;-89
2023/04/13 00:45:22;;;;;;;;;;;8.70;99.90;;;;;;5004878;28;19934;-89
2023/04/13 00:47:50;;;;;;;;;;;8.60;99.90;;;;;;5003793;28;19933;-89
2023/04/13 00:50:19;;;;;;;;;;;8.70;99.90;;;;;;5008241;28;20761;-90
2023/04/13 00:52:47;;;;;;;;;;;8.60;99.90;;;;;;5006266;28;19926;-89
2023/04/13 00:55:19;;;;;;;;;;;8.60;99.90;;;;;;5004515;28;20295;-89
2023/04/13 00:57:48;;;;;;;;;;;8.60;99.90;;;;;;5004880;28;19925;-90
2023/04/13 01:00:16;;;;;;;;;;;8.60;99.90;;;;;;5001443;28;19929;-89
2023/04/13 01:02:43;;;;;;;;;;;8.60;99.90;;;;;;5003681;28;19936;-89
2023/04/13 01:05:14;;;;;;;;;;;8.50;99.90;;;;;;5003951;28;20028;-89
2023/04/13 01:07:48;;;;;;;;;;;8.50;99.90;;;;;;4999383;28;20045;-89
2023/04/13 01:10:18;;;;;;;;;;;8.50;99.90;;;;;;5001160;28;20407;-90
2023/04/13 01:12:50;;;;;;;;;;;8.50;99.90;;;;;;5002943;28;19925;-90
2023/04/13 01:15:18;;;;;;;;;;;8.50;99.90;;;;;;5000597;28;19934;-90
2023/04/13 01:17:50;;;;;;;;;;;8.50;99.90;;;;;;5001677;28;20112;-89
2023/04/13 01:20:24;;;;;;;;;;;8.50;99.90;;;;;;5020790;28;19934;-90
2023/04/13 01:22:54;;;;;;;;;;;8.50;99.90;;;;;;4994601;28;19974;-89
2023/04/13 01:25:27;;;;;;;;;;;8.40;99.90;;;;;;4999080;28;19926;-89
2023/04/13 01:27:59;;;;;;;;;;;8.40;99.90;;;;;;5010472;28;19932;-89
2023/04/13 01:30:30;;;;;;;;;;;8.40;99.90;;;;;;5002682;28;19968;-90
2023/04/13 01:32:58;;;;;;;;;;;8.40;99.90;;;;;;4994714;28;19934;-90
2023/04/13 01:35:25;;;;;;;;;;;8.40;99.90;;;;;;5002365;28;19956;-88
2023/04/13 01:37:53;;;;;;;;;;;8.40;99.90;;;;;;5005939;28;19925;-89
2023/04/13 01:40:25;;;;;;;;;;;8.40;99.90;;;;;;5010667;28;19929;-90
2023/04/13 01:42:56;;;;;;;;;;;8.30;99.90;;;;;;5003307;28;19925;-88
2023/04/13 01:45:28;;;;;;;;;;;8.40;99.90;;;;;;5004133;28;20345;-89
2023/04/13 01:47:59;;;;;;;;;;;8.40;99.90;;;;;;5007259;28;19929;-89
2023/04/13 01:50:37;;;;;;;;;;;8.30;99.90;;;;;;5009330;28;19998;-89
2023/04/13 01:53:18;;;;;;;;;;;8.30;99.90;;;;;;5000111;28;19929;-90
2023/04/13 01:55:47;;;;;;;;;;;8.30;99.90;;;;;;5006643;28;19926;-89
2023/04/13 01:58:14;;;;;;;;;;;8.30;99.90;;;;;;5000096;28;19975;-89
2023/04/13 02:00:44;;;;;;;;;;;8.30;99.90;;;;;;5006904;28;19925;-89
2023/04/13 02:03:15;;;;;;;;;;;8.30;99.90;;;;;;5006350;28;19996;-89
2023/04/13 02:05:42;;;;;;;;;;;8.20;99.90;;;;;;5005130;28;19934;-89
2023/04/13 02:08:09;;;;;;;;;;;8.30;99.90;;;;;;5002366;28;19925;-90
2023/04/13 02:10:41;;;;;;;;;;;8.20;99.90;;;;;;5004697;28;19933;-89
2023/04/13 02:13:09;;;;;;;;;;;8.20;99.90;;;;;;5003961;28;19929;-90
2023/04/13 02:15:36;;;;;;;;;;;8.20;99.90;;;;;;5000788;28;19933;-90
2023/04/13 02:18:05;;;;;;;;;;;8.20;99.90;;;;;;5004251;28;19925;-90
2023/04/13 02:20:39;;;;;;;;;;;8.20;99.90;;;;;;4999659;28;19932;-89
2023/04/13 02:23:07;;;;;;;;;;;8.10;99.90;;;;;;4997919;28;19934;-89
2023/04/13 02:25:34;;;;;;;;;;;8.20;99.90;;;;;;5019158;28;19976;-90
2023/04/13 02:28:01;;;;;;;;;;;8.10;99.90;;;;;;4998717;28;20462;-90
2023/04/13 02:30:28;;;;;;;;;;;8.10;99.90;;;;;;4999398;28;19977;-90
2023/04/13 02:32:55;;;;;;;;;;;8.10;99.90;;;;;;5002885;28;19947;-89
2023/04/13 02:35:24;;;;;;;;;;;8.10;99.90;;;;;;5003954;28;19932;-90
2023/04/13 02:37:52;;;;;;;;;;;8.10;99.90;;;;;;5003176;28;19933;-90
2023/04/13 02:40:19;;;;;;;;;;;8.00;99.90;;;;;;5004572;28;19973;-89
2023/04/13 02:42:47;;;;;;;;;;;8.10;99.90;;;;;;5004218;28;19925;-89
2023/04/13 02:45:16;;;;;;;;;;;8.10;99.90;;;;;;5003919;28;20315;-90
2023/04/13 02:47:47;;;;;;;;;;;8.00;99.90;;;;;;5000761;28;19925;-89
2023/04/13 02:50:14;;;;;;;;;;;8.00;99.90;;;;;;5001986;28;19960;-90
2023/04/13 02:52:58;;;;;;;;;;;8.00;99.90;;;;;;5000982;28;19926;-89
2023/04/13 02:55:28;;;;;;;;;;;8.00;99.90;;;;;;5006519;28;19930;-89
2023/04/13 02:58:06;;;;;;;;;;;8.00;99.90;;;;;;4997226;28;20730;-90
2023/04/13 03:00:33;;;;;;;;;;;8.00;99.90;;;;;;5000666;28;19934;-89
2023/04/13 03:03:05;;;;;;;;;;;8.00;99.90;;;;;;5006453;28;19935;-89
2023/04/13 03:05:39;;;;;;;;;;;8.00;99.90;;;;;;5001594;28;20388;-89
2023/04/13 03:08:10;;;;;;;;;;;8.00;99.90;;;;;;5000933;28;19937;-90
2023/04/13 03:10:42;;;;;;;;;;;8.00;99.90;;;;;;4998976;28;19925;-89
2023/04/13 03:13:09;;;;;;;;;;;7.90;99.90;;;;;;4992683;28;19949;-89
2023/04/13 03:15:36;;;;;;;;;;;7.90;99.90;;;;;;4996447;28;20463;-89
2023/04/13 03:18:04;;;;;;;;;;;7.90;99.90;;;;;;5004049;28;19934;-89
2023/04/13 03:20:32;;;;;;;;;;;7.90;99.90;;;;;;5008733;28;19956;-89
2023/04/13 03:23:01;;;;;;;;;;;7.90;99.90;;;;;;4998594;28;19925;-89
2023/04/13 03:25:33;;;;;;;;;;;7.90;99.90;;;;;;5009408;28;19929;-88
2023/04/13 03:28:00;;;;;;;;;;;7.90;99.90;;;;;;5038320;28;19914;-90
2023/04/13 03:30:30;;;;;;;;;;;7.90;99.90;;;;;;5021422;28;19917;-90
2023/04/13 03:33:01;;;;;;;;;;;7.90;99.90;;;;;;5005909;28;19972;-90
2023/04/13 03:35:31;;;;;;;;;;;7.80;99.90;;;;;;5012147;28;19936;-90
2023/04/13 03:38:01;;;;;;;;;;;7.80;99.90;;;;;;5002542;28;20056;-90
2023/04/13 03:40:35;;;;;;;;;;;7.80;99.90;;;;;;4996696;28;20473;-89
2023/04/13 03:43:02;;;;;;;;;;;7.80;99.90;;;;;;4999862;28;19936;-89
2023/04/13 03:45:32;;;;;;;;;;;7.80;99.90;;;;;;5001762;28;19926;-89
2023/04/13 03:48:02;;;;;;;;;;;7.80;99.90;;;;;;4996139;28;20419;-87
2023/04/13 03:50:28;;;;;;;;;;;7.80;99.90;;;;;;5002224;28;19964;-89
2023/04/13 03:52:56;;;;;;;;;;;7.80;99.90;;;;;;5000388;28;20262;-89
2023/04/13 03:55:23;;;;;;;;;;;7.80;99.90;;;;;;5000782;28;19925;-90
2023/04/13 03:57:54;;;;;;;;;;;7.80;99.90;;;;;;4995703;28;20347;-89
2023/04/13 04:00:26;;;;;;;;;;;7.70;99.90;;;;;;4991589;28;20429;-89
2023/04/13 04:03:16;;;;;;;;;;;7.70;99.90;;;;;;5002324;28;20072;-89
2023/04/13 04:06:06;;;;;;;;;;;7.70;99.90;;;;;;5022033;28;20264;-89
2023/04/13 04:08:34;;;;;;;;;;;7.70;99.90;;;;;;5006801;28;19941;-89
2023/04/13 04:11:05;;;;;;;;;;;7.70;99.90;;;;;;5018424;28;19925;-89
2023/04/13 04:13:34;;;;;;;;;;;7.70;99.90;;;;;;5004335;28;20294;-89
2023/04/13 04:16:07;;;;;;;;;;;7.70;99.90;;;;;;5007514;28;19930;-89
2023/04/13 04:18:37;;;;;;;;;;;7.60;99.90;;;;;;5009359;28;20100;-89
2023/04/13 04:21:06;;;;;;;;;;;7.60;99.90;;;;;;5013447;28;19925;-89
2023/04/13 04:23:33;;;;;;;;;;;;;;;;;;5009767;28;19925;-90
2023/04/13 04:26:04;;;;;;;;;;;7.60;99.90;;;;;;5011992;28;19940;-88
2023/04/13 04:28:42;;;;;;;;;;;7.60;99.90;;;;;;5003269;28;20020;-88
2023/04/13 04:31:16;;;;;;;;;;;7.60;99.90;;;;;;5007675;28;20351;-89
2023/04/13 04:33:46;;;;;;;;;;;7.60;99.90;;;;;;5007372;28;19925;-88
2023/04/13 04:36:15;;;;;;;;;;;7.50;99.90;;;;;;5006879;28;19933;-89
2023/04/13 04:39:03;;;;;;;;;;;7.60;99.90;;;;;;5004248;28;20117;-89
2023/04/13 04:41:38;;;;;;;;;;;7.50;99.90;;;;;;5002489;28;19932;-87
2023/04/13 04:44:09;;;;;;;;;;;7.50;99.90;;;;;;5003492;28;19940;-87
2023/04/13 04:46:44;;;;;;;;;;;7.50;99.90;;;;;;5010226;28;19933;-87
2023/04/13 04:49:14;;;;;;;;;;;7.50;99.90;;;;;;5006443;28;19940;-88
2023/04/13 04:51:41;;;;;;;;;;;7.40;99.90;;;;;;5005297;28;20402;-86
2023/04/13 04:54:11;;;;;;;;;;;7.40;99.90;;;;;;5030431;28;19975;-87
2023/04/13 04:56:39;;;;;;;;;;;7.40;99.90;;;;;;5007154;28;20323;-87
2023/04/13 04:59:05;;;;;;;;;;;7.40;99.90;;;;;;5008485;28;20192;-87
2023/04/13 05:01:43;;;;;;;;;;;7.40;99.90;;;;;;5006278;28;19925;-87
2023/04/13 05:04:12;;;;;;;;;;;7.40;99.90;;;;;;5015796;28;20031;-88
2023/04/13 05:06:45;;;;;;;;;;;7.30;99.90;;;;;;5015457;28;20487;-86
2023/04/13 05:09:19;;;;;;;;;;;7.30;99.90;;;;;;5037091;28;19930;-87
2023/04/13 05:11:50;;;;;;;;;;;7.30;99.90;;;;;;5004764;28;19926;-87
2023/04/13 05:14:19;;;;;;;;;;;7.30;99.90;;;;;;5010214;28;20308;-86
2023/04/13 05:16:47;;;;;;;;;;;7.30;99.90;;;;;;5014999;28;20404;-88
2023/04/13 05:19:24;;;;;;;;;;;7.30;99.90;;;;;;5027392;28;20398;-87
2023/04/13 05:21:53;;;;;;;;;;;7.20;99.90;;;;;;5032469;28;19929;-86
2023/04/13 05:24:21;;;;;;;;;;;7.30;99.90;;;;;;5012497;28;19925;-86
2023/04/13 05:26:49;;;;;;;;;;;7.20;99.90;;;;;;5013484;28;19925;-87
2023/04/13 05:29:21;;;;;;;;;;;7.20;99.90;;;;;;5011374;28;20404;-86
2023/04/13 05:31:50;;;;;;;;;;;7.20;99.90;;;;;;5015336;28;20393;-87
2023/04/13 05:34:18;;;;;;;;;;;7.20;99.90;;;;;;5016162;28;20020;-88
2023/04/13 05:37:08;;;;;;;;;;;7.20;99.90;;;;;;5015399;28;20434;-88
2023/04/13 05:39:35;;;;;;;;;;;7.20;99.90;;;;;;5013605;28;21394;-89
2023/04/13 05:42:02;;;;;;;;;;;7.20;99.90;;;;;;5012077;28;19976;-87
2023/04/13 05:44:33;;;;;;;;;;;7.20;99.90;;;;;;5010552;28;19925;-87
2023/04/13 05:47:02;;;;;;;;;;;7.20;99.90;;;;;;5013545;28;19925;-86
2023/04/13 05:49:31;;;;;;;;;;;7.20;99.90;;;;;;5010005;28;20048;-86
2023/04/13 05:51:59;;;;;;;;;;;7.10;99.90;;;;;;5008595;28;19929;-88
2023/04/13 05:54:36;;;;;;;;;;;7.10;99.90;;;;;;5009555;28;19967;-89
2023/04/13 05:57:03;;;;;;;;;;;7.10;99.90;;;;;;5008529;28;19979;-90
2023/04/13 05:59:30;;;;;;;;;;;7.10;99.90;;;;;;5028146;28;20255;-89
2023/04/13 06:02:01;;;;;;;;;;;7.10;99.90;;;;;;5005629;28;20366;-88
2023/04/13 06:04:28;;;;;;;;;;;7.10;99.90;;;;;;5006141;28;20487;-89
2023/04/13 06:06:56;;;;;;;;;;;7.10;99.90;;;;;;4992578;28;20052;-90
2023/04/13 06:09:24;;;;;;;;;;;7.00;99.90;;;;;;4985095;28;20400;-91
2023/04/13 06:11:51;;;;;;;;;;;7.10;99.90;;;;;;5004706;28;19996;-87
2023/04/13 06:14:19;;;;;;;;;;;7.00;99.90;;;;;;5013272;28;19932;-86
2023/04/13 06:16:46;;;;;;;;;;;7.00;99.90;;;;;;5009836;28;19929;-89
2023/04/13 06:19:14;;;;;;;;;;;7.00;99.90;;;;;;5014133;28;20502;-90
2023/04/13 06:21:41;;;;;;;;;;;7.00;99.90;;;;;;5003089;28;19932;-89
2023/04/13 06:24:08;;;;;;;;;;;7.00;99.90;;;;;;5013545;28;19926;-88
2023/04/13 06:26:38;;;;;;;;;;;7.00;99.90;;;;;;5008598;28;19952;-88
2023/04/13 06:29:05;;;;;;;;;;;7.00;99.90;;;;;;5008615;28;19926;-87
2023/04/13 06:31:42;;;;;;;;;;;7.00;99.90;;;;;;5009020;28;19926;-88
2023/04/13 06:34:15;;;;;;;;;;;7.00;99.90;;;;;;5009423;28;19929;-91
2023/04/13 06:36:43;;;;;;;;;;;7.00;99.90;;;;;;5022910;28;19979;-91
2023/04/13 06:39:12;;;;;;;;;;;6.90;99.90;;;;;;5006614;28;19926;-87
2023/04/13 06:41:41;;;;;;;;;;;6.90;99.90;;;;;;5011934;28;19933;-88
2023/04/13 06:44:15;;;;;;;;;;;6.90;99.90;;;;;;5007853;28;19934;-88
2023/04/13 06:46:51;;;;;;;;;;;6.90;99.90;;;;;;5006034;28;19931;-89
2023/04/13 06:49:20;;;;;;;;;;;6.90;99.90;;;;;;5014211;28;19930;-88
2023/04/13 06:51:50;;;;;;;;;;;6.90;99.90;;;;;;5010870;28;19930;-88
2023/04/13 06:54:17;;;;;;;;;;;6.90;99.90;;;;;;5007014;28;20036;-88
2023/04/13 06:56:48;;;;;;;;;;;6.90;99.90;;;;;;5002679;28;19933;-91
2023/04/13 06:59:15;;;;;;;;;;;6.90;99.90;;;;;;5019110;28;19925;-90
2023/04/13 07:01:42;;;;;;;;;;;6.90;99.90;;;;;;5027320;28;19929;-90
2023/04/13 07:04:09;;;;;;;;;;;6.90;99.90;;;;;;5016498;28;19929;-89
2023/04/13 07:06:38;;;;;;;;;;;6.90;99.90;;;;;;5012515;28;19933;-90
2023/04/13 07:09:05;;;;;;;;;;;6.90;99.90;;;;;;5006573;28;19983;-88
2023/04/13 07:11:33;;;;;;;;;;;6.90;99.90;;;;;;5007123;28;19933;-90
2023/04/13 07:14:02;;;;;;;;;;;6.90;99.90;;;;;;5004268;28;20036;-89
2023/04/13 07:16:30;;;;;;;;;;;6.90;99.90;;;;;;5003133;28;19933;-88
2023/04/13 07:18:59;;;;;;;;;;;6.90;99.90;;;;;;5010254;28;19964;-90
2023/04/13 07:21:27;;;;;;;;;;;6.90;99.90;;;;;;5003888;28;20348;-87
2023/04/13 07:24:00;;;;;;;;;;;6.90;99.90;;;;;;5016187;28;19925;-91
2023/04/13 07:26:28;;;;;;;;;;;6.90;99.90;;;;;;5004486;28;19925;-89
2023/04/13 07:28:56;;;;;;;;;;;6.90;99.90;;;;;;5011382;28;19937;-88
2023/04/13 07:31:27;;;;;;;;;;;6.90;99.90;;;;;;5011756;28;19925;-87
2023/04/13 07:33:55;;;;;;;;;;;6.90;99.90;;;;;;5012524;28;19944;-88
2023/04/13 07:36:28;;;;;;;;;;;6.90;99.90;;;;;;5010831;28;20682;-85
2023/04/13 07:39:02;;;;;;;;;;;6.80;99.90;;;;;;5011747;28;19925;-90
2023/04/13 07:41:31;;;;;;;;;;;6.80;99.90;;;;;;5009299;28;19968;-88
2023/04/13 07:44:00;;;;;;;;;;;6.80;99.90;;;;;;5011257;28;19925;-88
2023/04/13 07:46:27;;;;;;;;;;;6.80;99.90;;;;;;5005774;28;19957;-88
2023/04/13 07:48:55;;;;;;;;;;;6.80;99.90;;;;;;5007083;28;19980;-90
2023/04/13 07:51:26;;;;;;;;;;;6.80;99.90;;;;;;5014707;28;20392;-89
2023/04/13 07:53:53;;;;;;;;;;;6.80;99.90;;;;;;5018621;28;19925;-86
2023/04/13 07:56:21;;;;;;;;;;;6.80;99.90;;;;;;5015836;28;20403;-86
2023/04/13 07:58:50;;;;;;;;;;;6.80;99.90;;;;;;5012982;28;19931;-86
2023/04/13 08:01:18;;;;;;;;;;;6.80;99.90;;;;;;5012161;28;20177;-86
2023/04/13 08:03:45;;;;;;;;;;;6.80;99.90;;;;;;5014539;28;20311;-88
2023/04/13 08:06:19;;;;;;;;;;;6.80;99.90;;;;;;5008964;28;19933;-86
2023/04/13 08:08:46;;;;;;;;;;;6.80;99.90;;;;;;5008710;28;19925;-86
2023/04/13 08:11:13;;;;;;;;;;;6.80;99.90;;;;;;5013742;28;19988;-88
2023/04/13 08:13:43;;;;;;;;;;;6.80;99.90;;;;;;5012979;28;19975;-86
2023/04/13 08:16:10;;;;;;;;;;;6.80;99.90;;;;;;5013086;28;19925;-86
2023/04/13 08:18:38;;;;;;;;;;;6.80;99.90;;;;;;5012543;28;19988;-86
2023/04/13 08:21:09;;;;;;;;;;;6.80;99.90;;;;;;5010618;28;19926;-86
2023/04/13 08:23:37;;;;;;;;;;;6.80;99.90;;;;;;5007783;28;19932;-86
2023/04/13 08:26:04;;;;;;;;;;;6.80;99.90;;;;;;5020336;28;20442;-88
2023/04/13 08:28:32;;;;;;;;;;;6.80;99.90;;;;;;5014511;28;19925;-87
2023/04/13 08:31:00;;;;;;;;;;;6.80;99.90;;;;;;5009967;28;20375;-87
2023/04/13 08:33:27;;;;;;;;;;;6.80;99.90;;;;;;5013759;28;19937;-87
2023/04/13 08:35:54;;;;;;;;;;;6.80;99.90;;;;;;5016653;28;19937;-86
2023/04/13 08:38:21;;;;;;;;;;;6.80;99.90;;;;;;5008768;28;19940;-86
2023/04/13 08:40:50;;;;;;;;;;;6.80;99.90;;;;;;5011980;28;19972;-87
2023/04/13 08:43:22;;;;;;;;;;;6.80;99.90;;;;;;5015666;28;19926;-86
2023/04/13 08:45:49;;;;;;;;;;;6.80;99.90;;;;;;5015327;28;20024;-90
2023/04/13 08:48:18;;;;;;;;;;;6.90;99.90;;;;;;5011677;28;19930;-87
2023/04/13 08:50:46;;;;;;;;;;;6.80;99.90;;;;;;5018127;28;19976;-87
2023/04/13 08:53:16;;;;;;;;;;;6.90;99.90;;;;;;5015939;28;20392;-86
2023/04/13 08:55:44;;;;;;;;;;;6.90;99.90;;;;;;5018099;28;19960;-87
2023/04/13 08:58:11;;;;;;;;;;;6.80;99.90;;;;;;5013278;28;20399;-88
2023/04/13 09:00:40;;;;;;;;;;;6.90;99.90;;;;;;5015614;28;19936;-89
2023/04/13 09:03:09;;;;;;;;;;;6.90;99.90;;;;;;5011015;28;20419;-88
2023/04/13 09:05:41;;;;;;;;;;;6.90;99.90;;;;;;5014295;28;20080;-86
2023/04/13 09:08:12;;;;;;;;;;;6.90;99.90;;;;;;5013123;28;19925;-88
2023/04/13 09:10:41;;;;;;;;;;;6.90;99.90;;;;;;5013172;28;19933;-86
2023/04/13 09:13:08;;;;;;;;;;;6.90;99.90;;;;;;5018499;28;19979;-88
2023/04/13 09:15:36;;;;;;;;;;;6.90;99.90;;;;;;5011805;28;20392;-87
2023/04/13 09:18:26;;;;;;;;;;;6.90;99.90;;;;;;4997992;28;20442;-88
2023/04/13 09:21:02;;;;;;;;;;;6.90;99.90;;;;;;5013980;28;19929;-70
2023/04/13 09:23:30;;;;;;;;;;;6.90;99.90;;;;;;5014075;28;20447;-88
2023/04/13 09:26:06;;;;;;;;;;;6.90;99.90;;;;;;5010573;28;19933;-87
2023/04/13 09:28:33;;;;;;;;;;;6.90;99.90;;;;;;5015883;28;19979;-86
2023/04/13 09:31:04;;;;;;;;;;;6.90;99.90;;;;;;5018561;28;19925;-86
2023/04/13 09:33:34;;;;;;;;;;;6.90;99.90;;;;;;5020585;28;19989;-87
2023/04/13 09:36:10;;;;;;;;;;;6.90;99.90;;;;;;5019853;28;20399;-87
2023/04/13 09:38:37;;;;;;;;;;;6.90;99.90;;;;;;5013399;28;20411;-89
2023/04/13 09:41:04;;;;;;;;;;;6.90;99.90;;;;;;5015750;28;19925;-88
2023/04/13 09:43:34;;;;;;;;;;;6.90;99.90;;;;;;5013126;28;20020;-86
2023/04/13 09:46:01;;;;;;;;;;;6.90;99.90;;;;;;5029074;28;20471;-86
2023/04/13 09:48:29;;;;;;;;;;;6.90;99.90;;;;;;5018175;28;19936;-88
2023/04/13 09:50:59;;;;;;;;;;;6.90;99.90;;;;;;5007718;28;19936;-86
2023/04/13 09:53:28;;;;;;;;;;;7.00;99.90;;;;;;5013004;28;19956;-89
2023/04/13 09:55:59;;;;;;;;;;;7.00;99.90;;;;;;5010978;28;19933;-86
2023/04/13 09:58:26;;;;;;;;;;;7.00;99.90;;;;;;5011448;28;19926;-88
2023/04/13 10:00:53;;;;;;;;;;;7.00;99.90;;;;;;5014195;28;19925;-87
2023/04/13 10:03:22;;;;;;;;;;;7.10;99.90;;;;;;5015284;28;19975;-86
2023/04/13 10:05:49;;;;;;;;;;;7.00;99.90;;;;;;5014607;28;19929;-85
2023/04/13 10:08:16;;;;;;;;;;;7.00;99.90;;;;;;5014686;28;19925;-86
2023/04/13 10:10:45;;;;;;;;;;;7.10;99.90;;;;;;5014681;28;19934;-88
2023/04/13 10:13:14;;;;;;;;;;;7.00;99.90;;;;;;5020449;28;20395;-87
2023/04/13 10:15:54;;;;;;;;;;;7.00;99.90;;;;;;5012678;28;19941;-86
2023/04/13 10:18:28;;;;;;;;;;;7.00;99.90;;;;;;5013572;28;19930;-87
2023/04/13 10:20:57;;;;;;;;;;;7.10;99.90;;;;;;5012336;28;19987;-87
2023/04/13 10:23:24;;;;;;;;;;;7.10;99.90;;;;;;5015800;28;20392;-88
2023/04/13 10:25:53;;;;;;;;;;;7.10;99.90;;;;;;5010743;28;20311;-88
2023/04/13 10:28:22;;;;;;;;;;;7.10;99.90;;;;;;5018655;28;19930;-88
2023/04/13 10:30:50;;;;;;;;;;;7.10;99.90;;;;;;5033192;28;19934;-88
2023/04/13 10:33:17;;;;;;;;;;;7.20;99.90;;;;;;5016538;28;19933;-87
2023/04/13 10:35:54;;;;;;;;;;;7.20;99.90;;;;;;5007059;28;19926;-88
2023/04/13 10:38:21;;;;;;;;;;;7.20;99.90;;;;;;5028014;28;19926;-86
2023/04/13 10:40:48;;;;;;;;;;;7.20;99.90;;;;;;5013330;28;19934;-88
2023/04/13 10:43:25;;;;;;;;;;;7.30;99.90;;;;;;5010414;28;19926;-87
2023/04/13 10:46:04;;;;;;;;;;;7.30;99.90;;;;;;5008158;28;19925;-87
2023/04/13 10:48:31;;;;;;;;;;;7.30;99.90;;;;;;5028146;28;19933;-87
2023/04/13 10:50:58;;;;;;;;;;;7.30;99.90;;;;;;5009732;28;19925;-87
2023/04/13 10:53:24;;;;;;;;;;;7.30;99.90;;;;;;5012138;28;19934;-87
2023/04/13 10:55:51;;;;;;;;;;;7.40;99.90;;;;;;5020548;28;19935;-86
2023/04/13 10:58:18;;;;;;;;;;;7.40;99.90;;;;;;5017038;28;19925;-88
2023/04/13 11:00:47;;;;;;;;;;;7.40;99.90;;;;;;5019783;28;20028;-87
2023/04/13 11:03:14;;;;;;;;;;;7.40;99.90;;;;;;5015277;28;19925;-86
2023/04/13 11:05:41;;;;;;;;;;;7.40;99.90;;;;;;5025522;28;20022;-88
2023/04/13 11:08:08;;;;;;;;;;;7.40;99.90;;;;;;5018474;28;20387;-87
2023/04/13 11:10:35;;;;;;;;;;;7.40;99.90;;;;;;5007606;28;20426;-87
2023/04/13 11:13:03;;;;;;;;;;;7.50;99.90;;;;;;5011681;28;19995;-86
2023/04/13 11:15:32;;;;;;;;;;;7.50;99.90;;;;;;5011498;28;19932;-87
2023/04/13 11:18:01;;;;;;;;;;;7.50;99.90;;;;;;5008083;28;19925;-86
2023/04/13 11:20:32;;;;;;;;;;;7.50;99.90;;;;;;5014227;28;19933;-89
2023/04/13 11:23:01;;;;;;;;;;;7.50;99.90;;;;;;5002753;28;20419;-87
2023/04/13 11:25:28;;;;;;;;;;;7.50;99.90;;;;;;5008938;28;19929;-87
2023/04/13 11:27:55;;;;;;;;;;;7.60;99.90;;;;;;5007808;28;19956;-87
2023/04/13 11:30:24;;;;;;;;;;;7.60;99.90;;;;;;5002581;28;21335;-87
2023/04/13 11:32:52;;;;;;;;;;;7.50;99.90;;;;;;5012677;28;19956;-87
2023/04/13 11:35:21;;;;;;;;;;;7.60;99.90;;;;;;5009196;28;19926;-86
2023/04/13 11:37:49;;;;;;;;;;;7.60;99.90;;;;;;5012592;28;19933;-87
2023/04/13 11:40:19;;;;;;;;;;;7.60;99.90;;;;;;5009090;28;19926;-87
2023/04/13 11:42:47;;;;;;;;;;;7.60;99.90;;;;;;5019893;28;19987;-88
2023/04/13 11:45:14;;;;;;;;;;;7.60;99.90;;;;;;5013890;28;19925;-88
2023/04/13 11:47:41;;;;;;;;;;;7.70;99.90;;;;;;5017962;28;20273;-88
2023/04/13 11:50:09;;;;;;;;;;;7.70;99.90;;;;;;5014047;28;20419;-86
2023/04/13 11:52:37;;;;;;;;;;;7.70;99.90;;;;;;5010058;28;20031;-86
2023/04/13 11:55:05;;;;;;;;;;;7.70;99.90;;;;;;5009089;28;19993;-86
2023/04/13 11:57:32;;;;;;;;;;;7.70;99.90;;;;;;5024776;28;19935;-88
2023/04/13 11:59:59;;;;;;;;;;;7.70;99.90;;;;;;5013967;28;19933;-86
2023/04/13 12:02:26;;;;;;;;;;;7.80;99.90;;;;;;5012740;28;20051;-87
2023/04/13 12:04:53;;;;;;;;;;;7.80;99.90;;;;;;5007799;28;20024;-87
2023/04/13 12:07:20;;;;;;;;;;;7.80;99.90;;;;;;5010903;28;19952;-87
2023/04/13 12:09:50;;;;;;;;;;;7.80;99.90;;;;;;5010108;28;19929;-87
2023/04/13 12:12:17;;;;;;;;;;;7.80;99.90;;;;;;5011117;28;19925;-87
2023/04/13 12:14:51;;;;;;;;;;;7.80;99.90;;;;;;5014093;28;19926;-87
2023/04/13 12:17:18;;;;;;;;;;;7.80;99.90;;;;;;5013512;28;19925;-88
2023/04/13 12:19:48;;;;;;;;;;;7.80;99.90;;;;;;5010450;28;20360;-88
2023/04/13 12:22:15;;;;;;;;;;;7.90;99.90;;;;;;5012818;28;19925;-89
2023/04/13 12:24:42;;;;;;;;;;;7.90;99.90;;;;;;5031195;28;20366;-89
2023/04/13 12:27:13;;;;;;;;;;;7.90;99.90;;;;;;5008472;28;19988;-87
2023/04/13 12:29:40;;;;;;;;;;;7.90;99.90;;;;;;5011230;28;20030;-88
2023/04/13 12:32:12;;;;;;;;;;;7.90;99.90;;;;;;5016647;28;19984;-88
2023/04/13 12:34:40;;;;;;;;;;;7.90;99.90;;;;;;5011186;28;20009;-88
2023/04/13 12:37:07;;;;;;;;;;;7.90;99.90;;;;;;5008317;28;19925;-87
2023/04/13 12:39:34;;;;;;;;;;;7.90;99.90;;;;;;5015310;28;19930;-87
2023/04/13 12:42:01;;;;;;;;;;;7.90;99.90;;;;;;5018556;28;19933;-87
2023/04/13 12:44:29;;;;;;;;;;;7.90;99.90;;;;;;5014572;28;20409;-88
2023/04/13 12:46:56;;;;;;;;;;;7.90;99.90;;;;;;5014147;28;20661;-89
2023/04/13 12:49:23;;;;;;;;;;;7.90;99.90;;;;;;5014326;28;20177;-88
2023/04/13 12:51:49;;;;;;;;;;;7.90;99.90;;;;;;5027142;28;19933;-88
2023/04/13 12:54:16;;;;;;;;;;;7.90;99.90;;;;;;5012170;28;20380;-89
2023/04/13 12:56:43;;;;;;;;;;;7.90;99.90;;;;;;5007908;28;19925;-89
2023/04/13 12:59:13;;;;;;;;;;;7.90;99.90;;;;;;5039953;28;19963;-89
2023/04/13 13:01:41;;;;;;;;;;;7.90;99.90;;;;;;5014976;28;19929;-90
2023/04/13 13:04:08;;;;;;;;;;;7.90;99.90;;;;;;5011488;28;19980;-86
2023/04/13 13:06:37;;;;;;;;;;;7.90;99.90;;;;;;5029466;28;19930;-89
2023/04/13 13:09:04;;;;;;;;;;;7.90;99.90;;;;;;5015248;28;19925;-89
2023/04/13 13:11:31;;;;;;;;;;;7.90;99.90;;;;;;5009180;28;19926;-87
2023/04/13 13:13:58;;;;;;;;;;;7.90;99.90;;;;;;5013516;28;19982;-90
2023/04/13 13:16:25;;;;;;;;;;;7.90;99.90;;;;;;5011374;28;19933;-87
2023/04/13 13:18:53;;;;;;;;;;;8.00;99.90;;;;;;5010933;28;19933;-91
2023/04/13 13:21:20;;;;;;;;;;;8.00;99.90;;;;;;5009382;28;19929;-89
2023/04/13 13:23:47;;;;;;;;;;;8.00;99.90;;;;;;5010502;28;19926;-87
2023/04/13 13:26:14;;;;;;;;;;;8.00;99.90;;;;;;5013083;28;20000;-90
2023/04/13 13:28:41;;;;;;;;;;;8.00;99.90;;;;;;5008592;28;19933;-88
2023/04/13 13:31:08;;;;;;;;;;;8.00;99.90;;;;;;5011181;28;19960;-89
2023/04/13 13:33:35;;;;;;;;;;;8.10;99.90;;;;;;5017331;28;19940;-88
2023/04/13 13:36:03;;;;;;;;;;;8.00;99.90;;;;;;5009664;28;19947;-88
2023/04/13 13:38:30;;;;;;;;;;;8.10;99.90;;;;;;5012154;28;20020;-88
2023/04/13 13:40:56;;;;;;;;;;;8.00;99.90;;;;;;5008098;28;20352;-89
2023/04/13 13:43:23;;;;;;;;;;;8.10;99.90;;;;;;5009880;28;19926;-90
2023/04/13 13:45:50;;;;;;;;;;;8.10;99.90;;;;;;5018190;28;19976;-91
2023/04/13 13:48:17;;;;;;;;;;;8.10;99.90;;;;;;5035175;28;19914;-91
2023/04/13 13:50:52;;;;;;;;;;;8.10;99.90;;;;;;5014898;28;19925;-89
2023/04/13 13:53:20;;;;;;;;;;;8.10;99.90;;;;;;4997349;28;19934;-93
2023/04/13 13:55:48;;;;;;;;;;;8.10;99.90;;;;;;5002860;28;20288;-84
2023/04/13 13:58:20;;;;;;;;;;;8.10;99.90;;;;;;4997560;28;19937;-91
2023/04/13 14:00:49;;;;;;;;;;;8.10;99.90;;;;;;5001868;28;20623;-91
2023/04/13 14:03:16;;;;;;;;;;;8.10;99.90;;;;;;5000585;28;19930;-93
2023/04/13 14:05:43;;;;;;;;;;;8.10;99.90;;;;;;4997610;28;20308;-92
2023/04/13 14:08:10;;;;;;;;;;;8.10;99.90;;;;;;5003015;28;19981;-91
2023/04/13 14:10:39;;;;;;;;;;;8.10;99.90;;;;;;4997095;28;19929;-92
2023/04/13 14:13:06;;;;;;;;;;;8.10;99.90;;;;;;5001101;28;19940;-94
2023/04/13 14:15:33;;;;;;;;;;;8.10;99.90;;;;;;5005179;28;20554;-90
2023/04/13 14:18:00;;;;;;;;;;;8.10;99.90;;;;;;5006587;28;20269;-92
2023/04/13 14:20:26;;;;;;;;;;;8.10;99.90;;;;;;5007946;28;19952;-91
2023/04/13 14:22:53;;;;;;;;;;;8.10;99.90;;;;;;5004432;28;19926;-92
2023/04/13 14:25:20;;;;;;;;;;;8.10;99.90;;;;;;4991081;28;19930;-90
2023/04/13 14:27:49;;;;;;;;;;;8.10;99.90;;;;;;5024300;28;20121;-91
2023/04/13 14:30:16;;;;;;;;;;;8.10;99.90;;;;;;5007334;28;20013;-91
2023/04/13 14:32:45;;;;;;;;;;;8.10;99.90;;;;;;4998839;28;19933;-90
2023/04/13 14:35:12;;;;;;;;;;;8.10;99.90;;;;;;4999325;28;19934;-90
2023/04/13 14:37:39;;;;;;;;;;;8.10;99.90;;;;;;5003981;28;20703;-90
2023/04/13 14:40:11;;;;;;;;;;;8.10;99.90;;;;;;5004413;28;19932;-92
2023/04/13 14:42:38;;;;;;;;;;;8.10;99.90;;;;;;5002074;28;19925;-89